Ostrander, Ohio
Current Conditions -  °F | °C
As of 2:36 PM on Saturday 25 Oct 2014 (Local Time) from KDLZ Reporting Station
Clear Clear  
Wind Chill: 72°   Ceiling: Unl
Heat Index: 72°   Visibility: 10mi
Dew Point: 52°   Wind: 13mph
Humidity: 50%   Direction: 260°W
Pressure: 29.86"   Gusts: 16mph
Location:  40.27°N, 83.21°W
Report Text: KDLZ 251836Z AUTO 26011G14KT 10SM CLR 22/11 A2986 RMK AO2
Loading
Personal Weather Stations






























Interactive Weather Map
Tropical Storm Tracking
New forecast layout! Learn more

10-Day Weather Forecast

Advertisements
Track Severe Weather on mobile